createdAt,value
2023-02-16T00:00:37.553Z,4.60
2023-02-16T00:03:04.461Z,4.70
2023-02-16T00:05:33.748Z,4.70
2023-02-16T00:08:01.601Z,4.60
2023-02-16T00:10:36.077Z,4.60
2023-02-16T00:13:40.511Z,4.60
2023-02-16T00:16:19.404Z,4.60
2023-02-16T00:18:47.139Z,4.50
2023-02-16T00:21:14.467Z,4.60
2023-02-16T00:23:41.640Z,4.60
2023-02-16T00:26:17.058Z,4.70
2023-02-16T00:28:44.609Z,4.80
2023-02-16T00:31:23.642Z,4.70
2023-02-16T00:33:50.544Z,4.70
2023-02-16T00:36:17.246Z,4.80
2023-02-16T00:38:43.867Z,4.80
2023-02-16T00:41:36.885Z,4.80
2023-02-16T00:44:06.839Z,4.80
2023-02-16T00:46:33.781Z,4.70
2023-02-16T00:49:00.466Z,4.60
2023-02-16T00:51:27.444Z,4.60
2023-02-16T00:53:54.352Z,4.50
2023-02-16T00:56:21.784Z,4.40
2023-02-16T00:58:52.479Z,4.40
2023-02-16T01:01:29.192Z,4.40
2023-02-16T01:03:55.909Z,4.30
2023-02-16T01:06:46.734Z,4.30
2023-02-16T01:09:35.306Z,4.20
2023-02-16T01:12:11.516Z,4.10
2023-02-16T01:14:38.173Z,4.10
2023-02-16T01:17:04.902Z,4.10
2023-02-16T01:19:31.516Z,4.00
2023-02-16T01:21:58.178Z,4.00
2023-02-16T01:24:38.945Z,4.00
2023-02-16T01:27:05.776Z,4.10
2023-02-16T01:29:32.431Z,4.20
2023-02-16T01:31:59.165Z,4.20
2023-02-16T01:34:25.914Z,4.10
2023-02-16T01:36:52.711Z,4.00
2023-02-16T01:39:20.720Z,3.90
2023-02-16T01:42:08.261Z,3.80
2023-02-16T01:44:42.743Z,3.80
2023-02-16T01:47:28.110Z,3.80
2023-02-16T01:50:07.285Z,3.80
2023-02-16T01:52:44.759Z,3.90
2023-02-16T01:55:19.005Z,3.80
2023-02-16T01:57:48.770Z,3.80
2023-02-16T02:00:27.953Z,3.70
2023-02-16T02:03:28.108Z,3.80
2023-02-16T02:05:54.783Z,3.80
2023-02-16T02:09:01.692Z,3.80
2023-02-16T02:11:36.758Z,3.80
2023-02-16T02:14:21.064Z,3.80
2023-02-16T02:17:05.322Z,3.80
2023-02-16T02:20:05.132Z,3.70
2023-02-16T02:23:13.216Z,3.70
2023-02-16T02:25:54.764Z,3.60
2023-02-16T02:28:27.438Z,3.60
2023-02-16T02:31:19.997Z,3.60
2023-02-16T02:33:46.568Z,3.60
2023-02-16T02:36:44.151Z,3.60
2023-02-16T02:39:25.956Z,3.70
2023-02-16T02:42:20.241Z,3.80
2023-02-16T02:45:22.937Z,3.90
2023-02-16T02:47:49.877Z,4.00
2023-02-16T02:51:09.798Z,4.20
2023-02-16T02:53:43.330Z,4.20
2023-02-16T02:56:29.410Z,4.20
2023-02-16T02:59:19.557Z,4.20
2023-02-16T03:01:52.950Z,4.30
2023-02-16T03:04:22.481Z,4.40
2023-02-16T03:06:55.519Z,4.50
2023-02-16T03:09:22.802Z,4.50
2023-02-16T03:12:09.440Z,4.50
2023-02-16T03:14:51.106Z,4.50
2023-02-16T03:17:41.326Z,4.60
2023-02-16T03:20:30.720Z,4.60
2023-02-16T03:23:16.830Z,4.50
2023-02-16T03:26:03.388Z,4.50
2023-02-16T03:28:51.941Z,4.50
2023-02-16T03:31:25.297Z,4.50
2023-02-16T03:33:54.670Z,4.50
2023-02-16T03:36:26.877Z,4.50
2023-02-16T03:38:55.949Z,4.50
2023-02-16T03:41:23.653Z,4.60
2023-02-16T03:43:50.483Z,4.60
2023-02-16T03:46:17.324Z,4.60
2023-02-16T03:48:44.149Z,4.60
2023-02-16T03:51:11.042Z,4.60
2023-02-16T03:53:37.727Z,4.50
2023-02-16T03:56:04.631Z,4.50
2023-02-16T03:58:31.417Z,4.40
2023-02-16T04:01:09.022Z,4.40
2023-02-16T04:03:35.761Z,4.50
2023-02-16T04:06:02.750Z,4.40
2023-02-16T04:08:29.570Z,4.40
2023-02-16T04:10:57.520Z,4.40
2023-02-16T04:13:24.751Z,4.30
2023-02-16T04:15:51.577Z,4.30
2023-02-16T04:18:21.848Z,4.20
2023-02-16T04:20:52.307Z,4.20
2023-02-16T04:23:19.050Z,4.10
2023-02-16T04:25:45.810Z,4.10
2023-02-16T04:28:12.558Z,4.10
2023-02-16T04:30:39.352Z,4.10
2023-02-16T04:33:06.021Z,4.10
2023-02-16T04:35:32.715Z,4.10
2023-02-16T04:38:19.262Z,4.10
2023-02-16T04:40:46.021Z,4.00
2023-02-16T04:43:12.665Z,4.00
2023-02-16T04:45:43.528Z,3.90
2023-02-16T04:48:23.869Z,3.90
2023-02-16T04:51:02.628Z,3.80
2023-02-16T04:53:29.573Z,3.80
2023-02-16T04:55:56.252Z,3.70
2023-02-16T04:58:23.002Z,3.70
2023-02-16T05:00:49.705Z,3.60
2023-02-16T05:03:23.388Z,3.70
2023-02-16T05:05:50.032Z,3.70
2023-02-16T05:08:18.362Z,3.60
2023-02-16T05:11:07.199Z,3.50
2023-02-16T05:13:52.698Z,3.50
2023-02-16T05:16:32.438Z,3.40
2023-02-16T05:18:59.190Z,3.40
2023-02-16T05:21:31.680Z,3.30
2023-02-16T05:23:59.748Z,3.20
2023-02-16T05:26:27.261Z,3.20
2023-02-16T05:29:11.420Z,3.20
2023-02-16T05:31:38.385Z,3.20
2023-02-16T05:34:05.200Z,3.20
2023-02-16T05:36:31.952Z,3.20
2023-02-16T05:38:58.874Z,3.20
2023-02-16T05:41:33.405Z,3.20
2023-02-16T05:44:17.361Z,3.20
2023-02-16T05:46:44.584Z,3.20
2023-02-16T05:49:11.198Z,3.20
2023-02-16T05:51:40.304Z,3.20
2023-02-16T05:54:07.239Z,3.20
2023-02-16T05:56:34.302Z,3.20
2023-02-16T05:59:01.031Z,3.10
2023-02-16T06:01:28.736Z,3.20
2023-02-16T06:03:55.667Z,3.20
2023-02-16T06:06:22.461Z,3.20
2023-02-16T06:08:52.069Z,3.30
2023-02-16T06:11:37.303Z,3.30
2023-02-16T06:14:11.025Z,3.30
2023-02-16T06:16:39.651Z,3.30
2023-02-16T06:19:16.083Z,3.30
2023-02-16T06:21:43.029Z,3.40
2023-02-16T06:24:11.570Z,3.30
2023-02-16T06:26:38.514Z,3.30
2023-02-16T06:29:06.260Z,3.30
2023-02-16T06:31:48.293Z,3.20
2023-02-16T06:34:23.520Z,3.20
2023-02-16T06:36:50.197Z,3.20
2023-02-16T06:39:17.010Z,3.10
2023-02-16T06:41:55.412Z,3.10
2023-02-16T06:44:37.514Z,3.00
2023-02-16T06:47:04.151Z,3.00
2023-02-16T06:49:30.811Z,3.00
2023-02-16T06:52:02.764Z,3.00
2023-02-16T06:54:29.424Z,3.10
2023-02-16T06:56:56.129Z,3.10
2023-02-16T06:59:29.440Z,3.10
2023-02-16T07:01:56.139Z,3.10
2023-02-16T07:04:22.844Z,3.20
2023-02-16T07:06:57.392Z,3.30
2023-02-16T07:09:24.080Z,3.30
2023-02-16T07:11:50.701Z,3.40
2023-02-16T07:14:28.464Z,3.40
2023-02-16T07:16:57.438Z,3.50
2023-02-16T07:19:26.089Z,3.60
2023-02-16T07:21:54.309Z,3.70
2023-02-16T07:24:21.114Z,3.80
2023-02-16T07:26:47.767Z,3.90
2023-02-16T07:29:14.431Z,3.90
2023-02-16T07:31:41.326Z,4.00
2023-02-16T07:34:08.098Z,4.00
2023-02-16T07:36:34.927Z,4.10
2023-02-16T07:39:39.123Z,4.20
2023-02-16T07:42:05.845Z,4.20
2023-02-16T07:44:32.456Z,4.20
2023-02-16T07:46:59.230Z,4.30
2023-02-16T07:49:25.907Z,4.40
2023-02-16T07:51:52.629Z,4.50
2023-02-16T07:54:19.311Z,4.60
2023-02-16T07:56:55.312Z,4.70
2023-02-16T07:59:22.097Z,4.80
2023-02-16T08:01:48.901Z,4.90
2023-02-16T08:04:26.033Z,5.00
2023-02-16T08:06:52.756Z,5.10
2023-02-16T08:09:19.516Z,5.10
2023-02-16T08:11:46.284Z,5.10
2023-02-16T08:14:14.621Z,5.00
2023-02-16T08:16:41.452Z,5.00
2023-02-16T08:19:10.029Z,5.00
2023-02-16T08:21:51.446Z,5.00
2023-02-16T08:24:19.364Z,5.00
2023-02-16T08:27:09.123Z,5.00
2023-02-16T08:29:42.877Z,5.10
2023-02-16T08:32:13.063Z,5.10
2023-02-16T08:34:43.228Z,5.20
2023-02-16T08:37:12.457Z,5.20
2023-02-16T08:39:39.622Z,5.30
2023-02-16T08:42:06.551Z,5.40
2023-02-16T08:44:33.598Z,5.40
2023-02-16T08:47:01.270Z,5.50
2023-02-16T08:49:28.309Z,5.60
2023-02-16T08:51:58.376Z,5.70
2023-02-16T08:54:30.183Z,5.80
2023-02-16T08:56:59.014Z,5.90
2023-02-16T08:59:28.755Z,6.00
2023-02-16T09:02:00.107Z,6.10
2023-02-16T09:04:29.262Z,6.30
2023-02-16T09:06:57.977Z,6.50
2023-02-16T09:09:26.370Z,6.60
2023-02-16T09:11:53.484Z,6.80
2023-02-16T09:14:21.636Z,6.90
2023-02-16T09:16:48.868Z,7.00
2023-02-16T09:19:19.031Z,7.10
2023-02-16T09:21:47.391Z,7.10
2023-02-16T09:24:14.397Z,7.10
2023-02-16T09:26:43.030Z,7.00
2023-02-16T09:29:12.710Z,7.20
2023-02-16T09:31:40.559Z,7.20
2023-02-16T09:34:19.843Z,7.20
2023-02-16T09:36:47.337Z,7.30
2023-02-16T09:39:17.711Z,7.40
2023-02-16T09:41:56.226Z,7.40
2023-02-16T09:45:11.538Z,7.40
2023-02-16T09:47:42.001Z,7.50
2023-02-16T09:50:52.698Z,7.60
2023-02-16T09:53:32.623Z,7.70
2023-02-16T09:56:17.993Z,7.70
2023-02-16T09:59:04.435Z,7.80
2023-02-16T10:01:41.720Z,8.00
2023-02-16T10:04:12.053Z,8.10
2023-02-16T10:07:17.022Z,8.10
2023-02-16T10:09:47.874Z,8.10
2023-02-16T10:12:24.247Z,8.20
2023-02-16T10:14:54.361Z,8.30
2023-02-16T10:17:31.886Z,8.40
2023-02-16T10:20:11.956Z,8.50
2023-02-16T10:22:57.216Z,8.60
2023-02-16T10:25:48.793Z,8.80
2023-02-16T10:28:23.008Z,9.00
2023-02-16T10:31:06.065Z,9.20
2023-02-16T10:33:54.610Z,9.40
2023-02-16T10:36:35.016Z,9.50
2023-02-16T10:39:18.190Z,9.60
2023-02-16T10:41:50.788Z,9.80
2023-02-16T10:44:22.744Z,9.80
2023-02-16T10:46:59.795Z,10.00
2023-02-16T10:49:26.983Z,10.20
2023-02-16T10:51:56.410Z,10.20
2023-02-16T10:54:30.663Z,10.40
2023-02-16T10:57:04.826Z,10.50
2023-02-16T10:59:38.502Z,10.70
2023-02-16T11:02:23.624Z,10.80
2023-02-16T11:04:54.810Z,10.80
2023-02-16T11:07:24.028Z,10.80
2023-02-16T11:09:56.511Z,10.90
2023-02-16T11:12:28.513Z,11.00
2023-02-16T11:15:04.685Z,11.10
2023-02-16T11:17:47.344Z,11.20
2023-02-16T11:20:45.994Z,11.30
2023-02-16T11:23:31.183Z,11.40
2023-02-16T11:26:03.732Z,11.60
2023-02-16T11:28:42.962Z,11.60
2023-02-16T11:31:09.646Z,11.70
2023-02-16T11:33:37.892Z,11.90
2023-02-16T11:36:24.924Z,11.90
2023-02-16T11:38:59.742Z,12.00
2023-02-16T11:41:27.844Z,12.00
2023-02-16T11:43:55.808Z,12.10
2023-02-16T11:46:38.858Z,12.30
2023-02-16T11:49:28.181Z,12.30
2023-02-16T11:52:04.347Z,12.50
2023-02-16T11:54:31.032Z,12.40
2023-02-16T11:57:09.401Z,12.50
2023-02-16T11:59:44.159Z,12.60
2023-02-16T12:02:35.214Z,12.50
2023-02-16T12:05:02.794Z,12.60
2023-02-16T12:07:29.462Z,12.70
2023-02-16T12:10:14.781Z,12.80
2023-02-16T12:12:59.249Z,12.80
2023-02-16T12:15:46.929Z,12.80
2023-02-16T12:19:05.614Z,12.70
2023-02-16T12:21:49.657Z,12.70
2023-02-16T12:24:37.859Z,12.80
2023-02-16T12:27:15.546Z,12.80
2023-02-16T12:29:46.102Z,12.80
2023-02-16T12:32:34.691Z,12.90
2023-02-16T12:35:13.070Z,13.10
2023-02-16T12:38:12.826Z,13.00
2023-02-16T12:41:25.038Z,13.00
2023-02-16T12:43:57.069Z,13.00
2023-02-16T12:46:37.918Z,12.90
2023-02-16T12:49:29.475Z,12.70
2023-02-16T12:52:26.444Z,12.60
2023-02-16T12:55:00.793Z,12.70
2023-02-16T12:57:33.172Z,12.70
2023-02-16T13:00:23.976Z,12.80
2023-02-16T13:02:57.006Z,12.80
2023-02-16T13:05:40.128Z,12.90
2023-02-16T13:08:24.815Z,13.10
2023-02-16T13:11:08.808Z,13.20
2023-02-16T13:13:40.056Z,13.20
2023-02-16T13:16:31.070Z,13.00
2023-02-16T13:19:00.649Z,12.90
2023-02-16T13:22:06.086Z,12.80
2023-02-16T13:24:56.242Z,12.70
2023-02-16T13:27:33.131Z,12.70
2023-02-16T13:30:34.912Z,12.80
2023-02-16T13:33:09.302Z,12.60
2023-02-16T13:35:48.515Z,12.60
2023-02-16T13:38:33.481Z,12.50
2023-02-16T13:41:55.569Z,12.60
2023-02-16T13:44:37.531Z,12.50
2023-02-16T13:47:06.824Z,12.50
2023-02-16T13:49:43.432Z,12.60
2023-02-16T13:52:27.614Z,12.60
2023-02-16T13:54:54.522Z,12.80
2023-02-16T13:57:50.474Z,12.90
2023-02-16T14:00:38.112Z,12.90
2023-02-16T14:03:20.966Z,12.80
2023-02-16T14:05:52.871Z,12.80
2023-02-16T14:08:29.531Z,12.60
2023-02-16T14:10:57.936Z,12.50
2023-02-16T14:13:33.542Z,12.30
2023-02-16T14:16:11.650Z,12.30
2023-02-16T14:18:54.214Z,12.30
2023-02-16T14:21:40.015Z,12.30
2023-02-16T14:24:12.878Z,12.30
2023-02-16T14:27:13.240Z,12.50
2023-02-16T14:29:53.417Z,12.40
2023-02-16T14:32:28.313Z,12.40
2023-02-16T14:35:13.836Z,12.30
2023-02-16T14:37:53.085Z,12.30
2023-02-16T14:40:23.768Z,12.40
2023-02-16T14:42:55.218Z,12.30
2023-02-16T14:45:34.495Z,12.30
2023-02-16T14:48:16.518Z,12.30
2023-02-16T14:50:49.029Z,12.30
2023-02-16T14:53:33.778Z,12.20
2023-02-16T14:56:11.968Z,12.10
2023-02-16T14:58:51.927Z,12.10
2023-02-16T15:01:21.471Z,12.10
2023-02-16T15:03:54.569Z,12.20
2023-02-16T15:06:23.600Z,12.10
2023-02-16T15:08:58.320Z,12.10
2023-02-16T15:12:02.322Z,12.30
2023-02-16T15:14:34.201Z,12.20
2023-02-16T15:17:13.127Z,12.20
2023-02-16T15:19:40.851Z,12.20
2023-02-16T15:22:22.765Z,12.00
2023-02-16T15:25:38.412Z,12.00
2023-02-16T15:28:13.506Z,11.90
2023-02-16T15:30:52.833Z,11.80
2023-02-16T15:33:28.376Z,11.70
2023-02-16T15:35:57.214Z,11.60
2023-02-16T15:38:26.956Z,11.60
2023-02-16T15:41:07.166Z,11.50
2023-02-16T15:43:52.252Z,11.50
2023-02-16T15:46:48.358Z,11.40
2023-02-16T15:49:21.750Z,11.30
2023-02-16T15:51:49.238Z,11.30
2023-02-16T15:54:24.527Z,11.30
2023-02-16T15:56:54.194Z,11.20
2023-02-16T15:59:31.748Z,11.20
2023-02-16T16:02:23.725Z,11.10
2023-02-16T16:04:56.155Z,11.10
2023-02-16T16:07:28.610Z,11.10
2023-02-16T16:09:56.786Z,11.00
2023-02-16T16:12:24.822Z,11.00
2023-02-16T16:14:58.032Z,10.90
2023-02-16T16:17:34.226Z,10.90
2023-02-16T16:20:41.274Z,10.80
2023-02-16T16:23:14.119Z,10.80
2023-02-16T16:25:44.951Z,10.70
2023-02-16T16:28:31.116Z,10.60
2023-02-16T16:31:11.547Z,10.60
2023-02-16T16:33:54.741Z,10.50
2023-02-16T16:36:30.147Z,10.50
2023-02-16T16:39:26.951Z,10.40
2023-02-16T16:42:08.274Z,10.40
2023-02-16T16:44:53.855Z,10.30
2023-02-16T16:47:31.313Z,10.30
2023-02-16T16:50:02.242Z,10.20
2023-02-16T16:52:39.017Z,10.20
2023-02-16T16:55:23.606Z,10.20
2023-02-16T16:58:08.421Z,10.10
2023-02-16T17:00:38.420Z,10.10
2023-02-16T17:03:08.050Z,10.10
2023-02-16T17:05:38.248Z,10.10
2023-02-16T17:08:05.410Z,10.00
2023-02-16T17:10:32.508Z,10.00
2023-02-16T17:13:00.704Z,10.00
2023-02-16T17:15:58.394Z,9.90
2023-02-16T17:18:25.394Z,10.00
2023-02-16T17:20:52.255Z,9.90
2023-02-16T17:23:25.388Z,9.90
2023-02-16T17:25:53.354Z,9.90
2023-02-16T17:28:20.713Z,9.80
2023-02-16T17:30:47.688Z,9.80
2023-02-16T17:33:14.549Z,9.80
2023-02-16T17:35:43.216Z,9.80
2023-02-16T17:38:12.982Z,9.80
2023-02-16T17:40:41.207Z,9.80
2023-02-16T17:43:13.593Z,9.80
2023-02-16T17:45:40.523Z,9.80
2023-02-16T17:48:07.513Z,9.70
2023-02-16T17:50:34.357Z,9.80
2023-02-16T17:53:03.995Z,9.70
2023-02-16T17:55:30.632Z,9.70
2023-02-16T17:57:58.196Z,9.70
2023-02-16T18:00:25.013Z,9.70
2023-02-16T18:02:51.678Z,9.70
2023-02-16T18:05:18.373Z,9.70
2023-02-16T18:07:45.006Z,9.60
2023-02-16T18:10:35.444Z,9.60
2023-02-16T18:13:02.184Z,9.60
2023-02-16T18:15:29.668Z,9.60
2023-02-16T18:18:09.982Z,9.60
2023-02-16T18:20:36.578Z,9.60
2023-02-16T18:23:04.840Z,9.60
2023-02-16T18:25:32.420Z,9.60
2023-02-16T18:27:59.301Z,9.60
2023-02-16T18:30:26.081Z,9.60
2023-02-16T18:32:52.842Z,9.60
2023-02-16T18:35:19.916Z,9.60
2023-02-16T18:37:47.134Z,9.50
2023-02-16T18:40:17.455Z,9.50
2023-02-16T18:42:44.519Z,9.50
2023-02-16T18:45:13.157Z,9.50
2023-02-16T18:47:41.003Z,9.50
2023-02-16T18:50:08.160Z,9.50
2023-02-16T18:52:35.055Z,9.50
2023-02-16T18:55:03.241Z,9.50
2023-02-16T18:57:30.110Z,9.50
2023-02-16T18:59:59.002Z,9.50
2023-02-16T19:02:25.851Z,9.50
2023-02-16T19:04:52.474Z,9.50
2023-02-16T19:07:19.401Z,9.50
2023-02-16T19:09:46.012Z,9.50
2023-02-16T19:12:12.700Z,9.50
2023-02-16T19:14:39.304Z,9.40
2023-02-16T19:17:06.140Z,9.50
2023-02-16T19:19:33.080Z,9.50
2023-02-16T19:21:59.987Z,9.50
2023-02-16T19:24:26.704Z,9.50
2023-02-16T19:26:54.571Z,9.50
2023-02-16T19:29:21.233Z,9.50
2023-02-16T19:31:48.137Z,9.50
2023-02-16T19:34:15.324Z,9.50
2023-02-16T19:36:41.953Z,9.50
2023-02-16T19:39:08.945Z,9.40
2023-02-16T19:41:38.873Z,9.40
2023-02-16T19:44:06.115Z,9.50
2023-02-16T19:46:34.443Z,9.50
2023-02-16T19:49:01.278Z,9.50
2023-02-16T19:51:28.294Z,9.50
2023-02-16T19:53:55.196Z,9.50
2023-02-16T19:56:25.180Z,9.50
2023-02-16T19:58:52.720Z,9.50
2023-02-16T20:01:20.795Z,9.50
2023-02-16T20:03:48.916Z,9.60
2023-02-16T20:06:17.173Z,9.60
2023-02-16T20:08:54.949Z,9.50
2023-02-16T20:11:23.667Z,9.50
2023-02-16T20:13:51.231Z,9.40
2023-02-16T20:16:18.957Z,9.40
2023-02-16T20:18:45.832Z,9.30
2023-02-16T20:21:15.136Z,9.30
2023-02-16T20:23:43.008Z,9.30
2023-02-16T20:26:13.932Z,9.30
2023-02-16T20:28:41.347Z,9.30
2023-02-16T20:31:14.653Z,9.30
2023-02-16T20:33:42.171Z,9.30
2023-02-16T20:36:09.145Z,9.30
2023-02-16T20:38:35.904Z,9.30
2023-02-16T20:41:02.765Z,9.30
2023-02-16T20:43:30.410Z,9.30
2023-02-16T20:45:57.949Z,9.30
2023-02-16T20:48:26.056Z,9.30
2023-02-16T20:50:57.803Z,9.30
2023-02-16T20:53:25.436Z,9.30
2023-02-16T20:56:04.830Z,9.30
2023-02-16T20:58:32.276Z,9.30
2023-02-16T21:01:01.766Z,9.30
2023-02-16T21:03:35.948Z,9.30
2023-02-16T21:06:02.614Z,9.30
2023-02-16T21:08:29.292Z,9.20
2023-02-16T21:11:00.848Z,9.20
2023-02-16T21:13:44.077Z,9.10
2023-02-16T21:16:11.366Z,9.00
2023-02-16T21:18:40.402Z,8.90
2023-02-16T21:21:16.368Z,8.80
2023-02-16T21:23:54.911Z,8.70
2023-02-16T21:26:24.432Z,8.60
2023-02-16T21:28:51.392Z,8.60
2023-02-16T21:31:21.565Z,8.50
2023-02-16T21:33:48.735Z,8.50
2023-02-16T21:36:19.082Z,8.40
2023-02-16T21:38:46.673Z,8.40
2023-02-16T21:41:26.317Z,8.30
2023-02-16T21:44:00.730Z,8.20
2023-02-16T21:46:36.107Z,8.10
2023-02-16T21:49:13.940Z,8.10
2023-02-16T21:51:42.008Z,8.10
2023-02-16T21:54:14.069Z,8.00
2023-02-16T21:56:45.744Z,7.90
2023-02-16T21:59:17.258Z,7.80
2023-02-16T22:01:46.504Z,7.70
2023-02-16T22:04:15.680Z,7.60
2023-02-16T22:06:50.383Z,7.60
2023-02-16T22:09:22.284Z,7.50
2023-02-16T22:11:49.662Z,7.50
2023-02-16T22:14:28.524Z,7.50
2023-02-16T22:16:55.354Z,7.50
2023-02-16T22:19:22.914Z,7.50
2023-02-16T22:21:51.165Z,7.50
2023-02-16T22:24:19.354Z,7.60
2023-02-16T22:26:48.137Z,7.60
2023-02-16T22:29:15.190Z,7.60
2023-02-16T22:31:49.212Z,7.60
2023-02-16T22:34:22.853Z,7.60
2023-02-16T22:36:49.950Z,7.60
2023-02-16T22:39:18.051Z,7.40
2023-02-16T22:41:54.125Z,7.30
2023-02-16T22:44:21.065Z,7.20
2023-02-16T22:46:48.229Z,7.10
2023-02-16T22:49:25.183Z,7.00
2023-02-16T22:51:52.147Z,6.90
2023-02-16T22:54:19.061Z,6.80
2023-02-16T22:56:46.979Z,6.70
2023-02-16T22:59:13.865Z,6.70
2023-02-16T23:01:40.999Z,6.80
2023-02-16T23:04:07.709Z,6.90
2023-02-16T23:06:37.118Z,7.00
2023-02-16T23:09:19.033Z,7.10
2023-02-16T23:11:46.242Z,7.20
2023-02-16T23:14:19.153Z,7.30
2023-02-16T23:16:48.179Z,7.40
2023-02-16T23:19:20.562Z,7.40
2023-02-16T23:21:47.438Z,7.50
2023-02-16T23:24:17.149Z,7.50
2023-02-16T23:26:44.348Z,7.50
2023-02-16T23:29:11.717Z,7.50
2023-02-16T23:31:42.251Z,7.50
2023-02-16T23:34:28.282Z,7.50
2023-02-16T23:36:55.000Z,7.50
2023-02-16T23:39:21.732Z,7.50
2023-02-16T23:41:54.416Z,7.50
2023-02-16T23:44:21.063Z,7.40
2023-02-16T23:46:47.710Z,7.30
2023-02-16T23:49:14.417Z,7.30
2023-02-16T23:51:41.151Z,7.30
2023-02-16T23:54:10.902Z,7.30
2023-02-16T23:56:39.453Z,7.20
2023-02-16T23:59:06.117Z,7.20
